Malta Bend, Missouri
Current Conditions -  °F | °C
As of 9:58 AM on Tuesday 27 Jan 2015 (Local Time) from KSZL Reporting Station
Clear Clear  
Wind Chill:   Ceiling: Unl
Heat Index:   Visibility: 10mi
Dew Point:   Wind: 6mph
Humidity: 74%   Direction: 50°NE
Pressure: 30.17"   Gusts: NA
Location:  39.19°N, 93.36°W
Report Text: KSZL 271558Z AUTO 05005KT 10SM CLR 05/01 A3017 RMK AO2 SLP223 T00530010 $
Loading
Personal Weather Stations






























Interactive Weather Map New forecast layout! Learn more

10-Day Weather Forecast

Advertisements
Track Severe Weather on mobile